sensor_id;sensor_type;location;lat;lon;timestamp;P1;durP1;ratioP1;P2;durP2;ratioP2
31716;SDS011;18301;51.076;17.046;2023-02-01T00:02:54;2.58;;;1.00;;
31716;SDS011;18301;51.076;17.046;2023-02-01T00:07:55;2.38;;;1.10;;
31716;SDS011;18301;51.076;17.046;2023-02-01T00:12:57;2.65;;;1.00;;
31716;SDS011;18301;51.076;17.046;2023-02-01T00:17:58;4.43;;;1.30;;
31716;SDS011;18301;51.076;17.046;2023-02-01T00:23:00;2.83;;;1.27;;
31716;SDS011;18301;51.076;17.046;2023-02-01T00:28:01;3.92;;;1.42;;
31716;SDS011;18301;51.076;17.046;2023-02-01T00:33:03;5.45;;;1.52;;
31716;SDS011;18301;51.076;17.046;2023-02-01T00:38:04;1.67;;;0.93;;
31716;SDS011;18301;51.076;17.046;2023-02-01T00:43:05;3.53;;;1.55;;
31716;SDS011;18301;51.076;17.046;2023-02-01T00:48:07;3.75;;;1.13;;
31716;SDS011;18301;51.076;17.046;2023-02-01T00:53:09;2.30;;;0.98;;
31716;SDS011;18301;51.076;17.046;2023-02-01T00:58:11;2.80;;;1.33;;
31716;SDS011;18301;51.076;17.046;2023-02-01T01:03:12;2.42;;;1.13;;
31716;SDS011;18301;51.076;17.046;2023-02-01T01:08:20;4.53;;;1.50;;
31716;SDS011;18301;51.076;17.046;2023-02-01T01:13:21;6.03;;;1.70;;
31716;SDS011;18301;51.076;17.046;2023-02-01T01:18:23;5.70;;;1.50;;
31716;SDS011;18301;51.076;17.046;2023-02-01T01:23:25;4.95;;;1.60;;
31716;SDS011;18301;51.076;17.046;2023-02-01T01:28:26;5.10;;;1.50;;
31716;SDS011;18301;51.076;17.046;2023-02-01T01:33:28;4.43;;;1.98;;
31716;SDS011;18301;51.076;17.046;2023-02-01T01:38:29;3.92;;;1.02;;
31716;SDS011;18301;51.076;17.046;2023-02-01T01:48:55;23.92;;;7.05;;
31716;SDS011;18301;51.076;17.046;2023-02-01T01:54:10;14.07;;;4.05;;
31716;SDS011;18301;51.076;17.046;2023-02-01T01:59:16;10.90;;;2.80;;
31716;SDS011;18301;51.076;17.046;2023-02-01T02:04:18;12.52;;;2.78;;
31716;SDS011;18301;51.076;17.046;2023-02-01T02:09:21;10.02;;;2.22;;
31716;SDS011;18301;51.076;17.046;2023-02-01T02:14:23;7.88;;;2.10;;
31716;SDS011;18301;51.076;17.046;2023-02-01T02:35:51;9.05;;;2.55;;
31716;SDS011;18301;51.076;17.046;2023-02-01T02:41:01;9.52;;;2.25;;
31716;SDS011;18301;51.076;17.046;2023-02-01T02:52:13;10.52;;;2.97;;
31716;SDS011;18301;51.076;17.046;2023-02-01T02:57:39;7.75;;;2.25;;
31716;SDS011;18301;51.076;17.046;2023-02-01T03:03:02;7.45;;;2.35;;
31716;SDS011;18301;51.076;17.046;2023-02-01T03:08:24;12.13;;;2.40;;
31716;SDS011;18301;51.076;17.046;2023-02-01T03:13:31;7.43;;;2.25;;
31716;SDS011;18301;51.076;17.046;2023-02-01T03:18:45;9.63;;;2.38;;
31716;SDS011;18301;51.076;17.046;2023-02-01T03:23:52;7.63;;;2.05;;
31716;SDS011;18301;51.076;17.046;2023-02-01T03:28:59;10.15;;;2.47;;
31716;SDS011;18301;51.076;17.046;2023-02-01T03:44:29;8.90;;;1.98;;
31716;SDS011;18301;51.076;17.046;2023-02-01T03:54:44;6.13;;;2.10;;
31716;SDS011;18301;51.076;17.046;2023-02-01T03:59:47;8.20;;;2.17;;
31716;SDS011;18301;51.076;17.046;2023-02-01T04:04:49;9.77;;;3.05;;
31716;SDS011;18301;51.076;17.046;2023-02-01T04:09:50;6.68;;;2.05;;
31716;SDS011;18301;51.076;17.046;2023-02-01T04:14:52;9.95;;;2.20;;
31716;SDS011;18301;51.076;17.046;2023-02-01T04:19:53;11.70;;;2.55;;
31716;SDS011;18301;51.076;17.046;2023-02-01T04:24:55;13.75;;;3.25;;
31716;SDS011;18301;51.076;17.046;2023-02-01T04:29:57;21.60;;;4.07;;
31716;SDS011;18301;51.076;17.046;2023-02-01T04:34:58;33.53;;;7.30;;
31716;SDS011;18301;51.076;17.046;2023-02-01T04:40:00;18.90;;;4.95;;
31716;SDS011;18301;51.076;17.046;2023-02-01T04:45:01;11.63;;;3.05;;
31716;SDS011;18301;51.076;17.046;2023-02-01T04:50:03;10.25;;;2.50;;
31716;SDS011;18301;51.076;17.046;2023-02-01T04:55:07;7.63;;;2.95;;
31716;SDS011;18301;51.076;17.046;2023-02-01T05:00:09;8.23;;;2.60;;
31716;SDS011;18301;51.076;17.046;2023-02-01T05:05:11;8.77;;;2.88;;
31716;SDS011;18301;51.076;17.046;2023-02-01T05:10:12;6.93;;;2.20;;
31716;SDS011;18301;51.076;17.046;2023-02-01T05:15:17;9.18;;;2.33;;
31716;SDS011;18301;51.076;17.046;2023-02-01T05:20:18;8.50;;;2.47;;
31716;SDS011;18301;51.076;17.046;2023-02-01T05:25:20;9.93;;;2.80;;
31716;SDS011;18301;51.076;17.046;2023-02-01T05:30:21;9.02;;;2.88;;
31716;SDS011;18301;51.076;17.046;2023-02-01T05:35:23;11.05;;;3.13;;
31716;SDS011;18301;51.076;17.046;2023-02-01T05:40:25;12.65;;;2.88;;
31716;SDS011;18301;51.076;17.046;2023-02-01T05:45:26;8.70;;;2.50;;
31716;SDS011;18301;51.076;17.046;2023-02-01T05:50:28;4.57;;;2.13;;
31716;SDS011;18301;51.076;17.046;2023-02-01T05:55:29;8.77;;;2.40;;
31716;SDS011;18301;51.076;17.046;2023-02-01T06:00:31;9.98;;;2.60;;
31716;SDS011;18301;51.076;17.046;2023-02-01T06:05:32;7.38;;;2.38;;
31716;SDS011;18301;51.076;17.046;2023-02-01T06:10:34;9.70;;;2.70;;
31716;SDS011;18301;51.076;17.046;2023-02-01T06:15:35;31.20;;;8.07;;
31716;SDS011;18301;51.076;17.046;2023-02-01T06:20:38;37.97;;;9.95;;
31716;SDS011;18301;51.076;17.046;2023-02-01T06:25:40;20.83;;;6.30;;
31716;SDS011;18301;51.076;17.046;2023-02-01T06:30:41;18.67;;;4.93;;
31716;SDS011;18301;51.076;17.046;2023-02-01T06:35:47;13.73;;;4.15;;
31716;SDS011;18301;51.076;17.046;2023-02-01T06:40:51;14.48;;;3.70;;
31716;SDS011;18301;51.076;17.046;2023-02-01T06:45:59;10.80;;;3.28;;
31716;SDS011;18301;51.076;17.046;2023-02-01T06:51:02;10.73;;;2.75;;
31716;SDS011;18301;51.076;17.046;2023-02-01T06:56:04;6.65;;;2.35;;
31716;SDS011;18301;51.076;17.046;2023-02-01T07:01:06;11.32;;;2.42;;
31716;SDS011;18301;51.076;17.046;2023-02-01T07:06:09;9.77;;;2.60;;
31716;SDS011;18301;51.076;17.046;2023-02-01T07:11:11;10.05;;;2.88;;
31716;SDS011;18301;51.076;17.046;2023-02-01T07:16:16;8.98;;;2.67;;
31716;SDS011;18301;51.076;17.046;2023-02-01T07:21:21;7.32;;;2.33;;
31716;SDS011;18301;51.076;17.046;2023-02-01T07:26:23;14.30;;;4.05;;
31716;SDS011;18301;51.076;17.046;2023-02-01T07:31:24;7.78;;;2.80;;
31716;SDS011;18301;51.076;17.046;2023-02-01T07:36:27;5.15;;;2.00;;
31716;SDS011;18301;51.076;17.046;2023-02-01T07:41:29;7.22;;;2.67;;
31716;SDS011;18301;51.076;17.046;2023-02-01T07:46:30;7.70;;;2.65;;
31716;SDS011;18301;51.076;17.046;2023-02-01T07:51:32;11.02;;;3.05;;
31716;SDS011;18301;51.076;17.046;2023-02-01T07:56:33;19.35;;;6.10;;
31716;SDS011;18301;51.076;17.046;2023-02-01T08:01:35;12.73;;;4.18;;
31716;SDS011;18301;51.076;17.046;2023-02-01T08:06:36;16.85;;;5.20;;
31716;SDS011;18301;51.076;17.046;2023-02-01T08:11:38;19.20;;;5.38;;
31716;SDS011;18301;51.076;17.046;2023-02-01T08:16:39;14.88;;;4.32;;
31716;SDS011;18301;51.076;17.046;2023-02-01T08:21:41;18.55;;;4.95;;
31716;SDS011;18301;51.076;17.046;2023-02-01T08:26:42;21.83;;;6.53;;
31716;SDS011;18301;51.076;17.046;2023-02-01T08:31:44;15.77;;;4.38;;
31716;SDS011;18301;51.076;17.046;2023-02-01T08:36:45;18.77;;;5.53;;
31716;SDS011;18301;51.076;17.046;2023-02-01T08:41:47;13.30;;;4.75;;
31716;SDS011;18301;51.076;17.046;2023-02-01T08:47:08;15.98;;;4.50;;
31716;SDS011;18301;51.076;17.046;2023-02-01T08:52:10;20.90;;;5.20;;
31716;SDS011;18301;51.076;17.046;2023-02-01T08:57:16;23.75;;;6.00;;
31716;SDS011;18301;51.076;17.046;2023-02-01T09:02:18;30.48;;;8.38;;
31716;SDS011;18301;51.076;17.046;2023-02-01T09:07:19;23.58;;;6.72;;
31716;SDS011;18301;51.076;17.046;2023-02-01T09:12:21;15.30;;;4.22;;
31716;SDS011;18301;51.076;17.046;2023-02-01T09:17:24;8.63;;;3.03;;
31716;SDS011;18301;51.076;17.046;2023-02-01T09:22:26;8.75;;;3.22;;
31716;SDS011;18301;51.076;17.046;2023-02-01T09:27:27;7.38;;;2.58;;
31716;SDS011;18301;51.076;17.046;2023-02-01T09:32:29;9.85;;;3.15;;
31716;SDS011;18301;51.076;17.046;2023-02-01T09:37:30;6.43;;;2.65;;
31716;SDS011;18301;51.076;17.046;2023-02-01T09:42:41;9.40;;;2.75;;
31716;SDS011;18301;51.076;17.046;2023-02-01T09:48:04;6.43;;;2.28;;
31716;SDS011;18301;51.076;17.046;2023-02-01T09:59:08;10.52;;;3.78;;
31716;SDS011;18301;51.076;17.046;2023-02-01T10:04:20;19.08;;;5.82;;
31716;SDS011;18301;51.076;17.046;2023-02-01T10:30:40;5.25;;;2.58;;
31716;SDS011;18301;51.076;17.046;2023-02-01T10:35:46;6.97;;;2.78;;
31716;SDS011;18301;51.076;17.046;2023-02-01T10:40:52;6.82;;;2.70;;
31716;SDS011;18301;51.076;17.046;2023-02-01T10:45:56;9.45;;;3.08;;
31716;SDS011;18301;51.076;17.046;2023-02-01T10:50:59;8.20;;;2.83;;
31716;SDS011;18301;51.076;17.046;2023-02-01T10:56:07;8.32;;;3.22;;
31716;SDS011;18301;51.076;17.046;2023-02-01T11:01:17;16.27;;;4.60;;
31716;SDS011;18301;51.076;17.046;2023-02-01T11:06:30;10.70;;;3.03;;
31716;SDS011;18301;51.076;17.046;2023-02-01T11:12:20;9.52;;;3.10;;
31716;SDS011;18301;51.076;17.046;2023-02-01T11:22:16;10.95;;;3.40;;
31716;SDS011;18301;51.076;17.046;2023-02-01T11:27:19;8.60;;;3.28;;
31716;SDS011;18301;51.076;17.046;2023-02-01T11:32:28;6.88;;;2.33;;
31716;SDS011;18301;51.076;17.046;2023-02-01T11:37:36;5.32;;;2.28;;
31716;SDS011;18301;51.076;17.046;2023-02-01T11:42:52;5.57;;;3.17;;
31716;SDS011;18301;51.076;17.046;2023-02-01T11:47:56;7.50;;;2.92;;
31716;SDS011;18301;51.076;17.046;2023-02-01T11:58:46;7.28;;;2.85;;
31716;SDS011;18301;51.076;17.046;2023-02-01T12:51:38;4.57;;;2.13;;
31716;SDS011;18301;51.076;17.046;2023-02-01T12:56:57;6.25;;;3.08;;
31716;SDS011;18301;51.076;17.046;2023-02-01T13:07:27;3.47;;;2.05;;
31716;SDS011;18301;51.076;17.046;2023-02-01T13:12:36;2.60;;;1.65;;
31716;SDS011;18301;51.076;17.046;2023-02-01T13:17:43;3.80;;;2.00;;
31716;SDS011;18301;51.076;17.046;2023-02-01T13:22:51;3.38;;;2.40;;
31716;SDS011;18301;51.076;17.046;2023-02-01T13:28:04;4.57;;;2.25;;
31716;SDS011;18301;51.076;17.046;2023-02-01T13:33:15;3.92;;;1.77;;
31716;SDS011;18301;51.076;17.046;2023-02-01T13:44:07;6.88;;;2.25;;
31716;SDS011;18301;51.076;17.046;2023-02-01T13:49:18;5.25;;;1.90;;
31716;SDS011;18301;51.076;17.046;2023-02-01T13:54:27;6.55;;;2.33;;
31716;SDS011;18301;51.076;17.046;2023-02-01T13:59:48;6.45;;;2.72;;
31716;SDS011;18301;51.076;17.046;2023-02-01T14:04:52;7.20;;;3.05;;
31716;SDS011;18301;51.076;17.046;2023-02-01T14:09:54;10.27;;;4.95;;
31716;SDS011;18301;51.076;17.046;2023-02-01T14:15:16;15.95;;;6.45;;
31716;SDS011;18301;51.076;17.046;2023-02-01T14:25:41;18.75;;;5.85;;
31716;SDS011;18301;51.076;17.046;2023-02-01T14:30:44;9.63;;;4.45;;
31716;SDS011;18301;51.076;17.046;2023-02-01T14:36:00;7.65;;;2.95;;
31716;SDS011;18301;51.076;17.046;2023-02-01T14:52:11;5.68;;;2.38;;
31716;SDS011;18301;51.076;17.046;2023-02-01T14:57:16;9.32;;;2.50;;
31716;SDS011;18301;51.076;17.046;2023-02-01T15:02:23;8.45;;;3.05;;
31716;SDS011;18301;51.076;17.046;2023-02-01T15:07:27;12.38;;;4.03;;
31716;SDS011;18301;51.076;17.046;2023-02-01T15:12:30;6.40;;;2.67;;
31716;SDS011;18301;51.076;17.046;2023-02-01T15:17:34;14.82;;;3.50;;
31716;SDS011;18301;51.076;17.046;2023-02-01T15:22:35;8.15;;;3.00;;
31716;SDS011;18301;51.076;17.046;2023-02-01T15:27:37;7.05;;;2.78;;
31716;SDS011;18301;51.076;17.046;2023-02-01T15:32:39;12.60;;;4.32;;
31716;SDS011;18301;51.076;17.046;2023-02-01T15:37:41;13.70;;;3.80;;
31716;SDS011;18301;51.076;17.046;2023-02-01T15:42:50;13.85;;;3.97;;
31716;SDS011;18301;51.076;17.046;2023-02-01T15:47:53;9.93;;;3.97;;
31716;SDS011;18301;51.076;17.046;2023-02-01T15:52:57;13.63;;;4.10;;
31716;SDS011;18301;51.076;17.046;2023-02-01T15:57:59;9.77;;;4.22;;
31716;SDS011;18301;51.076;17.046;2023-02-01T16:03:04;10.40;;;3.85;;
31716;SDS011;18301;51.076;17.046;2023-02-01T16:08:10;9.52;;;3.63;;
31716;SDS011;18301;51.076;17.046;2023-02-01T16:13:15;9.95;;;4.55;;
31716;SDS011;18301;51.076;17.046;2023-02-01T16:18:21;7.53;;;3.30;;
31716;SDS011;18301;51.076;17.046;2023-02-01T16:23:22;7.57;;;3.42;;
31716;SDS011;18301;51.076;17.046;2023-02-01T16:28:24;8.07;;;3.30;;
31716;SDS011;18301;51.076;17.046;2023-02-01T16:33:26;7.80;;;3.38;;
31716;SDS011;18301;51.076;17.046;2023-02-01T16:38:27;11.73;;;4.20;;
31716;SDS011;18301;51.076;17.046;2023-02-01T16:43:29;9.70;;;4.18;;
31716;SDS011;18301;51.076;17.046;2023-02-01T16:48:33;13.30;;;4.30;;
31716;SDS011;18301;51.076;17.046;2023-02-01T16:53:36;13.10;;;4.95;;
31716;SDS011;18301;51.076;17.046;2023-02-01T16:58:54;18.60;;;6.32;;
31716;SDS011;18301;51.076;17.046;2023-02-01T17:03:55;25.88;;;8.70;;
31716;SDS011;18301;51.076;17.046;2023-02-01T17:08:57;17.83;;;7.75;;
31716;SDS011;18301;51.076;17.046;2023-02-01T17:14:01;17.15;;;7.28;;
31716;SDS011;18301;51.076;17.046;2023-02-01T17:19:16;29.42;;;8.30;;
31716;SDS011;18301;51.076;17.046;2023-02-01T17:24:21;18.75;;;6.82;;
31716;SDS011;18301;51.076;17.046;2023-02-01T17:29:27;23.13;;;8.38;;
31716;SDS011;18301;51.076;17.046;2023-02-01T17:34:30;20.40;;;8.38;;
31716;SDS011;18301;51.076;17.046;2023-02-01T17:39:32;21.17;;;9.32;;
31716;SDS011;18301;51.076;17.046;2023-02-01T17:44:55;19.98;;;8.50;;
31716;SDS011;18301;51.076;17.046;2023-02-01T17:49:58;15.07;;;5.15;;
31716;SDS011;18301;51.076;17.046;2023-02-01T17:54:59;11.70;;;5.03;;
31716;SDS011;18301;51.076;17.046;2023-02-01T18:00:02;12.98;;;5.88;;
31716;SDS011;18301;51.076;17.046;2023-02-01T18:05:14;11.60;;;4.75;;
31716;SDS011;18301;51.076;17.046;2023-02-01T18:10:20;10.20;;;3.88;;
31716;SDS011;18301;51.076;17.046;2023-02-01T18:15:22;23.90;;;6.88;;
31716;SDS011;18301;51.076;17.046;2023-02-01T18:20:26;22.67;;;6.97;;
31716;SDS011;18301;51.076;17.046;2023-02-01T18:25:29;29.73;;;7.35;;
31716;SDS011;18301;51.076;17.046;2023-02-01T18:30:37;51.20;;;16.37;;
31716;SDS011;18301;51.076;17.046;2023-02-01T18:35:38;12.95;;;5.38;;
31716;SDS011;18301;51.076;17.046;2023-02-01T18:40:50;15.60;;;4.82;;
31716;SDS011;18301;51.076;17.046;2023-02-01T18:45:53;14.45;;;4.07;;
31716;SDS011;18301;51.076;17.046;2023-02-01T18:50:55;9.00;;;3.70;;
31716;SDS011;18301;51.076;17.046;2023-02-01T18:55:58;8.35;;;3.45;;
31716;SDS011;18301;51.076;17.046;2023-02-01T19:01:03;5.93;;;3.08;;
31716;SDS011;18301;51.076;17.046;2023-02-01T19:06:06;7.65;;;2.80;;
31716;SDS011;18301;51.076;17.046;2023-02-01T19:11:08;6.13;;;3.00;;
31716;SDS011;18301;51.076;17.046;2023-02-01T19:16:11;9.55;;;3.30;;
31716;SDS011;18301;51.076;17.046;2023-02-01T19:21:13;8.73;;;3.63;;
31716;SDS011;18301;51.076;17.046;2023-02-01T19:26:16;10.90;;;4.13;;
31716;SDS011;18301;51.076;17.046;2023-02-01T19:31:18;8.73;;;3.95;;
31716;SDS011;18301;51.076;17.046;2023-02-01T19:36:19;7.47;;;3.53;;
31716;SDS011;18301;51.076;17.046;2023-02-01T19:41:21;7.35;;;3.58;;
31716;SDS011;18301;51.076;17.046;2023-02-01T19:46:22;8.00;;;3.40;;
31716;SDS011;18301;51.076;17.046;2023-02-01T19:51:24;5.95;;;2.30;;
31716;SDS011;18301;51.076;17.046;2023-02-01T19:56:26;5.53;;;2.40;;
31716;SDS011;18301;51.076;17.046;2023-02-01T20:01:27;5.03;;;2.58;;
31716;SDS011;18301;51.076;17.046;2023-02-01T20:06:29;4.95;;;2.63;;
31716;SDS011;18301;51.076;17.046;2023-02-01T20:11:31;3.15;;;1.73;;
31716;SDS011;18301;51.076;17.046;2023-02-01T20:16:33;6.60;;;2.03;;
31716;SDS011;18301;51.076;17.046;2023-02-01T20:21:35;4.57;;;1.50;;
31716;SDS011;18301;51.076;17.046;2023-02-01T20:26:38;4.85;;;1.80;;
31716;SDS011;18301;51.076;17.046;2023-02-01T20:31:40;4.82;;;1.58;;
31716;SDS011;18301;51.076;17.046;2023-02-01T20:36:41;6.80;;;2.60;;
31716;SDS011;18301;51.076;17.046;2023-02-01T20:41:43;8.13;;;2.85;;
31716;SDS011;18301;51.076;17.046;2023-02-01T20:46:44;29.55;;;6.50;;
31716;SDS011;18301;51.076;17.046;2023-02-01T20:51:47;23.17;;;5.75;;
31716;SDS011;18301;51.076;17.046;2023-02-01T20:56:49;19.15;;;4.32;;
31716;SDS011;18301;51.076;17.046;2023-02-01T21:01:50;18.52;;;5.03;;
31716;SDS011;18301;51.076;17.046;2023-02-01T21:06:54;15.00;;;4.82;;
31716;SDS011;18301;51.076;17.046;2023-02-01T21:11:55;20.30;;;5.85;;
31716;SDS011;18301;51.076;17.046;2023-02-01T21:16:57;19.60;;;7.38;;
31716;SDS011;18301;51.076;17.046;2023-02-01T21:21:58;15.20;;;4.68;;
31716;SDS011;18301;51.076;17.046;2023-02-01T21:27:00;12.25;;;4.50;;
31716;SDS011;18301;51.076;17.046;2023-02-01T21:32:01;8.50;;;4.05;;
31716;SDS011;18301;51.076;17.046;2023-02-01T21:37:03;10.30;;;4.40;;
31716;SDS011;18301;51.076;17.046;2023-02-01T21:42:05;8.77;;;3.33;;
31716;SDS011;18301;51.076;17.046;2023-02-01T21:47:18;9.13;;;4.13;;
31716;SDS011;18301;51.076;17.046;2023-02-01T21:52:26;5.18;;;3.40;;
31716;SDS011;18301;51.076;17.046;2023-02-01T21:57:28;6.93;;;3.08;;
31716;SDS011;18301;51.076;17.046;2023-02-01T22:02:29;6.30;;;2.92;;
31716;SDS011;18301;51.076;17.046;2023-02-01T22:07:32;7.20;;;2.92;;
31716;SDS011;18301;51.076;17.046;2023-02-01T22:12:35;7.95;;;3.90;;
31716;SDS011;18301;51.076;17.046;2023-02-01T22:17:37;6.82;;;3.28;;
31716;SDS011;18301;51.076;17.046;2023-02-01T22:22:38;9.43;;;3.20;;
31716;SDS011;18301;51.076;17.046;2023-02-01T22:27:40;5.55;;;2.58;;
31716;SDS011;18301;51.076;17.046;2023-02-01T22:33:02;7.05;;;2.90;;
31716;SDS011;18301;51.076;17.046;2023-02-01T22:38:03;3.72;;;2.30;;
31716;SDS011;18301;51.076;17.046;2023-02-01T22:43:04;6.13;;;2.50;;
31716;SDS011;18301;51.076;17.046;2023-02-01T22:48:06;7.43;;;3.05;;
31716;SDS011;18301;51.076;17.046;2023-02-01T22:53:07;8.20;;;2.65;;
31716;SDS011;18301;51.076;17.046;2023-02-01T22:58:09;5.70;;;2.35;;
31716;SDS011;18301;51.076;17.046;2023-02-01T23:03:10;7.03;;;2.33;;
31716;SDS011;18301;51.076;17.046;2023-02-01T23:08:12;4.75;;;2.15;;
31716;SDS011;18301;51.076;17.046;2023-02-01T23:13:13;5.57;;;2.33;;
31716;SDS011;18301;51.076;17.046;2023-02-01T23:18:15;8.65;;;2.65;;
31716;SDS011;18301;51.076;17.046;2023-02-01T23:23:16;7.13;;;2.67;;
31716;SDS011;18301;51.076;17.046;2023-02-01T23:28:18;5.85;;;1.90;;
31716;SDS011;18301;51.076;17.046;2023-02-01T23:33:23;5.40;;;2.15;;
31716;SDS011;18301;51.076;17.046;2023-02-01T23:38:26;6.75;;;2.13;;
31716;SDS011;18301;51.076;17.046;2023-02-01T23:43:27;6.45;;;2.13;;
31716;SDS011;18301;51.076;17.046;2023-02-01T23:48:48;5.15;;;1.92;;
31716;SDS011;18301;51.076;17.046;2023-02-01T23:53:51;7.32;;;2.10;;
31716;SDS011;18301;51.076;17.046;2023-02-01T23:58:54;9.50;;;2.40;;
